createdAt,value
2018-05-31T00:01:45.062Z,21.4
2018-05-31T00:11:45.340Z,21.3
2018-05-31T00:21:43.484Z,21.3
2018-05-31T00:31:43.106Z,21.2
2018-05-31T00:41:42.080Z,21.2
2018-05-31T00:51:41.471Z,21.1
2018-05-31T01:01:40.623Z,21
2018-05-31T01:11:39.838Z,20.9
2018-05-31T01:21:38.838Z,20.9
2018-05-31T01:31:38.355Z,20.8
2018-05-31T01:41:38.200Z,20.8
2018-05-31T01:51:36.779Z,20.6
2018-05-31T02:01:36.051Z,20.6
2018-05-31T02:11:35.170Z,20.5
2018-05-31T02:21:34.117Z,20.4
2018-05-31T02:31:33.827Z,20.4
2018-05-31T02:41:32.846Z,20.3
2018-05-31T02:51:32.356Z,20.2
2018-05-31T03:01:31.319Z,20.1
2018-05-31T03:11:30.202Z,20.3
2018-05-31T03:21:29.510Z,20.5
2018-05-31T03:31:29.873Z,20.8
2018-05-31T03:41:28.093Z,20.9
2018-05-31T03:51:27.592Z,21.1
2018-05-31T04:01:26.581Z,21.2
2018-05-31T04:11:25.501Z,21.2
2018-05-31T04:21:24.769Z,21.3
2018-05-31T04:31:24.159Z,21.4
2018-05-31T04:41:23.677Z,21.6
2018-05-31T04:51:23.288Z,21.2
2018-05-31T05:01:22.513Z,21
2018-05-31T05:11:20.923Z,21.3
2018-05-31T05:21:21.056Z,21.4
2018-05-31T05:31:19.365Z,21.7
2018-05-31T05:41:18.843Z,21.8
2018-05-31T05:51:19.566Z,22.1
2018-05-31T06:01:17.205Z,22.3
2018-05-31T06:11:16.965Z,22.6
2018-05-31T06:21:16.183Z,22.8
2018-05-31T06:31:15.877Z,22.8
2018-05-31T06:41:13.933Z,22.9
2018-05-31T06:51:13.735Z,23.2
2018-05-31T07:01:12.622Z,23.4
2018-05-31T07:11:11.659Z,23.6
2018-05-31T07:21:11.263Z,23.6
2018-05-31T07:31:10.142Z,23.8
2018-05-31T07:41:09.849Z,23.9
2018-05-31T07:51:08.331Z,24.1
2018-05-31T08:01:07.887Z,24.3
2018-05-31T08:11:07.231Z,24.4
2018-05-31T08:21:06.043Z,24.5
2018-05-31T08:31:06.022Z,24.6
2018-05-31T08:41:05.396Z,24.8
2018-05-31T08:51:04.143Z,24.9
2018-05-31T09:01:03.452Z,25
2018-05-31T09:11:02.700Z,25.1
2018-05-31T09:21:02.031Z,25.2
2018-05-31T09:31:02.021Z,25.1
2018-05-31T09:40:59.783Z,25.2
2018-05-31T09:51:00.057Z,25.4
2018-05-31T10:00:58.244Z,25.4
2018-05-31T10:10:57.425Z,25.2
2018-05-31T10:20:56.623Z,25.3
2018-05-31T10:30:55.870Z,25.4
2018-05-31T10:40:55.388Z,25.6
2018-05-31T10:50:54.542Z,25.6
2018-05-31T11:00:53.666Z,25.7
2018-05-31T11:10:53.668Z,25.7
2018-05-31T11:20:52.000Z,26.3
2018-05-31T11:30:51.190Z,26.4
2018-05-31T11:40:50.676Z,26
2018-05-31T11:50:50.002Z,26
2018-05-31T12:00:50.575Z,25.8
2018-05-31T12:10:48.791Z,25.9
2018-05-31T12:20:47.503Z,25.9
2018-05-31T12:30:46.494Z,25.8
2018-05-31T12:40:46.829Z,25.9
2018-05-31T12:50:45.174Z,25.8
2018-05-31T13:00:45.004Z,25.8
2018-05-31T13:10:43.939Z,25.8
2018-05-31T13:20:42.584Z,25.7
2018-05-31T13:30:42.124Z,25.6
2018-05-31T13:40:41.495Z,25.7
2018-05-31T13:50:41.483Z,25.7
2018-05-31T14:00:40.318Z,25.6
2018-05-31T14:10:38.860Z,25.6
2018-05-31T14:20:38.500Z,25.7
2018-05-31T14:30:37.224Z,25.7
2018-05-31T14:40:36.570Z,25.7
2018-05-31T14:50:35.801Z,25.7
2018-05-31T15:00:35.095Z,25.6
2018-05-31T15:10:34.341Z,25.6
2018-05-31T15:20:33.794Z,25.7
2018-05-31T15:30:32.524Z,25.6
2018-05-31T15:40:31.746Z,25.6
2018-05-31T15:50:31.796Z,25.4
2018-05-31T16:00:30.103Z,25.3
2018-05-31T16:10:29.616Z,25.3
2018-05-31T16:20:29.110Z,25.4
2018-05-31T16:30:28.066Z,25.2
2018-05-31T16:40:27.254Z,25.1
2018-05-31T16:50:26.305Z,25.1
2018-05-31T17:00:25.494Z,24.9
2018-05-31T17:10:24.941Z,24.8
2018-05-31T17:20:24.517Z,24.6
2018-05-31T17:30:23.775Z,24.4
2018-05-31T17:40:22.316Z,24.2
2018-05-31T17:50:22.763Z,23.9
2018-05-31T18:00:21.024Z,23.8
2018-05-31T18:10:21.201Z,23.6
2018-05-31T18:20:19.813Z,23.4
2018-05-31T18:30:18.463Z,23.4
2018-05-31T18:40:18.839Z,23.2
2018-05-31T18:50:17.278Z,23.2
2018-05-31T19:00:17.547Z,22.9
2018-05-31T19:10:15.988Z,22.9
2018-05-31T19:40:13.522Z,23.6
2018-05-31T19:50:12.859Z,23.6
2018-05-31T20:00:12.085Z,23.6
2018-05-31T20:10:10.613Z,23.6
2018-05-31T20:20:10.289Z,23.4
2018-05-31T20:30:09.417Z,23.4
2018-05-31T20:40:08.323Z,23.3
2018-05-31T20:50:07.980Z,23.3
2018-05-31T21:00:07.609Z,23.1
2018-05-31T21:10:05.971Z,23.1
2018-05-31T21:20:06.771Z,23
2018-05-31T21:30:05.317Z,22.9
2018-05-31T21:40:04.249Z,22.8
2018-05-31T21:50:02.817Z,22.7
2018-05-31T22:00:02.402Z,22.6
2018-05-31T22:10:01.707Z,22.4
2018-05-31T22:20:00.557Z,22.4
2018-05-31T22:29:59.757Z,22.4
2018-05-31T22:39:58.927Z,22.4
2018-05-31T22:49:58.209Z,22.3
2018-05-31T22:59:57.789Z,22.3
2018-05-31T23:09:56.792Z,22.1
2018-05-31T23:19:56.473Z,22.1
2018-05-31T23:29:55.020Z,22
2018-05-31T23:39:54.571Z,21.9
2018-05-31T23:49:53.552Z,21.8
2018-05-31T23:59:52.703Z,21.7
